<?xml version="1.0" encoding="UTF-8" standalone="no" ?>
<gpx xmlns="http://www.topografix.com/GPX/1/1" xmlns:xsi="http://www.w3.org/2001/XMLSchema-instance" xsi:schemaLocation="http://www.topografix.com/GPX/1/1 http://www.topografix.com/GPX/1/1/gpx.xsd" version="1.1" creator="VisuGPX - https://www.visugpx.com">
  <metadata>
    <name>geocaching les canalettes</name>
    <desc><![CDATA[Aujourd\'hui petite sortie rapide pour trouver une cache au canalette]]></desc>
  </metadata>
  <trk>
    <name><![CDATA[001-2013/07/31-13:27:41]]></name>
    <trkseg>
      <trkpt lat="42.58253" lon="2.37116">
        <ele>444</ele>
        <time>2013-07-31T11:27:41Z</time>
      </trkpt>
      <trkpt lat="42.58281" lon="2.37106">
        <ele>443</ele>
        <time>2013-07-31T11:28:02Z</time>
      </trkpt>
      <trkpt lat="42.58283" lon="2.37105">
        <ele>443</ele>
        <time>2013-07-31T11:28:04Z</time>
      </trkpt>
      <trkpt lat="42.58286" lon="2.37105">
        <ele>443</ele>
        <time>2013-07-31T11:28:06Z</time>
      </trkpt>
      <trkpt lat="42.58288" lon="2.37104">
        <ele>443</ele>
        <time>2013-07-31T11:28:08Z</time>
      </trkpt>
      <trkpt lat="42.58292" lon="2.37101">
        <ele>443</ele>
        <time>2013-07-31T11:28:11Z</time>
      </trkpt>
      <trkpt lat="42.58295" lon="2.37099">
        <ele>443</ele>
        <time>2013-07-31T11:28:13Z</time>
      </trkpt>
      <trkpt lat="42.58298" lon="2.37097">
        <ele>443</ele>
        <time>2013-07-31T11:28:16Z</time>
      </trkpt>
      <trkpt lat="42.58301" lon="2.37094">
        <ele>443</ele>
        <time>2013-07-31T11:28:18Z</time>
      </trkpt>
      <trkpt lat="42.58304" lon="2.37091">
        <ele>443</ele>
        <time>2013-07-31T11:28:21Z</time>
      </trkpt>
      <trkpt lat="42.58307" lon="2.37089">
        <ele>443</ele>
        <time>2013-07-31T11:28:23Z</time>
      </trkpt>
      <trkpt lat="42.5831" lon="2.37085">
        <ele>443</ele>
        <time>2013-07-31T11:28:26Z</time>
      </trkpt>
      <trkpt lat="42.58312" lon="2.37083">
        <ele>443</ele>
        <time>2013-07-31T11:28:28Z</time>
      </trkpt>
      <trkpt lat="42.58313" lon="2.3708">
        <ele>443</ele>
        <time>2013-07-31T11:28:30Z</time>
      </trkpt>
      <trkpt lat="42.58315" lon="2.37076">
        <ele>443</ele>
        <time>2013-07-31T11:28:32Z</time>
      </trkpt>
      <trkpt lat="42.58317" lon="2.37074">
        <ele>443</ele>
        <time>2013-07-31T11:28:34Z</time>
      </trkpt>
      <trkpt lat="42.58319" lon="2.37069">
        <ele>443</ele>
        <time>2013-07-31T11:28:37Z</time>
      </trkpt>
      <trkpt lat="42.58321" lon="2.37067">
        <ele>443</ele>
        <time>2013-07-31T11:28:39Z</time>
      </trkpt>
      <trkpt lat="42.58324" lon="2.37065">
        <ele>443</ele>
        <time>2013-07-31T11:28:41Z</time>
      </trkpt>
      <trkpt lat="42.58326" lon="2.37064">
        <ele>443</ele>
        <time>2013-07-31T11:28:43Z</time>
      </trkpt>
      <trkpt lat="42.58328" lon="2.37063">
        <ele>443</ele>
        <time>2013-07-31T11:28:45Z</time>
      </trkpt>
      <trkpt lat="42.5833" lon="2.37061">
        <ele>443</ele>
        <time>2013-07-31T11:28:47Z</time>
      </trkpt>
      <trkpt lat="42.58332" lon="2.37057">
        <ele>443</ele>
        <time>2013-07-31T11:28:50Z</time>
      </trkpt>
      <trkpt lat="42.58333" lon="2.37055">
        <ele>443</ele>
        <time>2013-07-31T11:28:52Z</time>
      </trkpt>
      <trkpt lat="42.58334" lon="2.37053">
        <ele>443</ele>
        <time>2013-07-31T11:28:55Z</time>
      </trkpt>
      <trkpt lat="42.58333" lon="2.37051">
        <ele>443</ele>
        <time>2013-07-31T11:28:57Z</time>
      </trkpt>
      <trkpt lat="42.58331" lon="2.37046">
        <ele>443</ele>
        <time>2013-07-31T11:29:00Z</time>
      </trkpt>
      <trkpt lat="42.5833" lon="2.37042">
        <ele>443</ele>
        <time>2013-07-31T11:29:02Z</time>
      </trkpt>
      <trkpt lat="42.58328" lon="2.37037">
        <ele>443</ele>
        <time>2013-07-31T11:29:05Z</time>
      </trkpt>
      <trkpt lat="42.58327" lon="2.37033">
        <ele>443</ele>
        <time>2013-07-31T11:29:08Z</time>
      </trkpt>
      <trkpt lat="42.58326" lon="2.37028">
        <ele>443</ele>
        <time>2013-07-31T11:29:11Z</time>
      </trkpt>
      <trkpt lat="42.58324" lon="2.37023">
        <ele>443</ele>
        <time>2013-07-31T11:29:15Z</time>
      </trkpt>
      <trkpt lat="42.58323" lon="2.37018">
        <ele>443</ele>
        <time>2013-07-31T11:29:19Z</time>
      </trkpt>
      <trkpt lat="42.58321" lon="2.3702">
        <ele>443</ele>
        <time>2013-07-31T11:29:22Z</time>
      </trkpt>
      <trkpt lat="42.58318" lon="2.37025">
        <ele>443</ele>
        <time>2013-07-31T11:29:26Z</time>
      </trkpt>
      <trkpt lat="42.58315" lon="2.37027">
        <ele>443</ele>
        <time>2013-07-31T11:29:28Z</time>
      </trkpt>
      <trkpt lat="42.5831" lon="2.37029">
        <ele>443</ele>
        <time>2013-07-31T11:29:32Z</time>
      </trkpt>
      <trkpt lat="42.58305" lon="2.3703">
        <ele>443</ele>
        <time>2013-07-31T11:29:36Z</time>
      </trkpt>
      <trkpt lat="42.583" lon="2.37031">
        <ele>443</ele>
        <time>2013-07-31T11:29:40Z</time>
      </trkpt>
      <trkpt lat="42.58297" lon="2.37033">
        <ele>443</ele>
        <time>2013-07-31T11:29:43Z</time>
      </trkpt>
      <trkpt lat="42.58294" lon="2.37035">
        <ele>444</ele>
        <time>2013-07-31T11:29:47Z</time>
      </trkpt>
      <trkpt lat="42.58287" lon="2.37036">
        <ele>447</ele>
        <time>2013-07-31T11:29:51Z</time>
      </trkpt>
      <trkpt lat="42.58281" lon="2.37036">
        <ele>450</ele>
        <time>2013-07-31T11:29:55Z</time>
      </trkpt>
      <trkpt lat="42.58278" lon="2.37035">
        <ele>450</ele>
        <time>2013-07-31T11:29:57Z</time>
      </trkpt>
      <trkpt lat="42.58275" lon="2.37033">
        <ele>451</ele>
        <time>2013-07-31T11:30:00Z</time>
      </trkpt>
      <trkpt lat="42.58272" lon="2.37033">
        <ele>452</ele>
        <time>2013-07-31T11:30:03Z</time>
      </trkpt>
      <trkpt lat="42.58269" lon="2.37034">
        <ele>452</ele>
        <time>2013-07-31T11:30:05Z</time>
      </trkpt>
      <trkpt lat="42.58266" lon="2.37034">
        <ele>452</ele>
        <time>2013-07-31T11:30:08Z</time>
      </trkpt>
      <trkpt lat="42.58261" lon="2.37037">
        <ele>452</ele>
        <time>2013-07-31T11:30:13Z</time>
      </trkpt>
      <trkpt lat="42.58257" lon="2.37038">
        <ele>452</ele>
        <time>2013-07-31T11:30:15Z</time>
      </trkpt>
      <trkpt lat="42.58255" lon="2.3704">
        <ele>452</ele>
        <time>2013-07-31T11:30:18Z</time>
      </trkpt>
      <trkpt lat="42.5825" lon="2.37044">
        <ele>452</ele>
        <time>2013-07-31T11:30:21Z</time>
      </trkpt>
      <trkpt lat="42.58245" lon="2.37049">
        <ele>452</ele>
        <time>2013-07-31T11:30:24Z</time>
      </trkpt>
      <trkpt lat="42.58242" lon="2.37051">
        <ele>452</ele>
        <time>2013-07-31T11:30:26Z</time>
      </trkpt>
      <trkpt lat="42.5824" lon="2.37051">
        <ele>453</ele>
        <time>2013-07-31T11:30:29Z</time>
      </trkpt>
      <trkpt lat="42.58232" lon="2.37054">
        <ele>454</ele>
        <time>2013-07-31T11:30:34Z</time>
      </trkpt>
      <trkpt lat="42.5823" lon="2.37054">
        <ele>454</ele>
        <time>2013-07-31T11:30:36Z</time>
      </trkpt>
      <trkpt lat="42.58226" lon="2.37057">
        <ele>454</ele>
        <time>2013-07-31T11:30:40Z</time>
      </trkpt>
      <trkpt lat="42.58223" lon="2.37059">
        <ele>454</ele>
        <time>2013-07-31T11:30:44Z</time>
      </trkpt>
      <trkpt lat="42.58218" lon="2.37063">
        <ele>451</ele>
        <time>2013-07-31T11:30:48Z</time>
      </trkpt>
      <trkpt lat="42.58214" lon="2.37068">
        <ele>450</ele>
        <time>2013-07-31T11:30:52Z</time>
      </trkpt>
      <trkpt lat="42.58209" lon="2.37075">
        <ele>450</ele>
        <time>2013-07-31T11:30:56Z</time>
      </trkpt>
      <trkpt lat="42.58204" lon="2.37079">
        <ele>450</ele>
        <time>2013-07-31T11:31:00Z</time>
      </trkpt>
      <trkpt lat="42.58201" lon="2.37079">
        <ele>450</ele>
        <time>2013-07-31T11:31:03Z</time>
      </trkpt>
      <trkpt lat="42.58198" lon="2.37079">
        <ele>450</ele>
        <time>2013-07-31T11:31:05Z</time>
      </trkpt>
      <trkpt lat="42.58194" lon="2.37084">
        <ele>451</ele>
        <time>2013-07-31T11:31:09Z</time>
      </trkpt>
      <trkpt lat="42.58192" lon="2.37087">
        <ele>452</ele>
        <time>2013-07-31T11:31:12Z</time>
      </trkpt>
      <trkpt lat="42.58189" lon="2.37095">
        <ele>456</ele>
        <time>2013-07-31T11:31:17Z</time>
      </trkpt>
      <trkpt lat="42.58188" lon="2.37097">
        <ele>456</ele>
        <time>2013-07-31T11:31:20Z</time>
      </trkpt>
      <trkpt lat="42.58185" lon="2.371">
        <ele>456</ele>
        <time>2013-07-31T11:31:22Z</time>
      </trkpt>
      <trkpt lat="42.58182" lon="2.37104">
        <ele>456</ele>
        <time>2013-07-31T11:31:25Z</time>
      </trkpt>
      <trkpt lat="42.5818" lon="2.37107">
        <ele>456</ele>
        <time>2013-07-31T11:31:27Z</time>
      </trkpt>
      <trkpt lat="42.58176" lon="2.37111">
        <ele>456</ele>
        <time>2013-07-31T11:31:31Z</time>
      </trkpt>
      <trkpt lat="42.58173" lon="2.37115">
        <ele>456</ele>
        <time>2013-07-31T11:31:35Z</time>
      </trkpt>
      <trkpt lat="42.58168" lon="2.37122">
        <ele>455</ele>
        <time>2013-07-31T11:31:40Z</time>
      </trkpt>
      <trkpt lat="42.58166" lon="2.37127">
        <ele>454</ele>
        <time>2013-07-31T11:31:44Z</time>
      </trkpt>
      <trkpt lat="42.58161" lon="2.37134">
        <ele>452</ele>
        <time>2013-07-31T11:31:49Z</time>
      </trkpt>
      <trkpt lat="42.58159" lon="2.37137">
        <ele>452</ele>
        <time>2013-07-31T11:31:51Z</time>
      </trkpt>
      <trkpt lat="42.58156" lon="2.37143">
        <ele>452</ele>
        <time>2013-07-31T11:31:55Z</time>
      </trkpt>
      <trkpt lat="42.58152" lon="2.37148">
        <ele>452</ele>
        <time>2013-07-31T11:31:59Z</time>
      </trkpt>
      <trkpt lat="42.58149" lon="2.37153">
        <ele>451</ele>
        <time>2013-07-31T11:32:03Z</time>
      </trkpt>
      <trkpt lat="42.58146" lon="2.37159">
        <ele>451</ele>
        <time>2013-07-31T11:32:08Z</time>
      </trkpt>
      <trkpt lat="42.58143" lon="2.37166">
        <ele>451</ele>
        <time>2013-07-31T11:32:11Z</time>
      </trkpt>
      <trkpt lat="42.58141" lon="2.37172">
        <ele>451</ele>
        <time>2013-07-31T11:32:15Z</time>
      </trkpt>
      <trkpt lat="42.58137" lon="2.37179">
        <ele>451</ele>
        <time>2013-07-31T11:32:20Z</time>
      </trkpt>
      <trkpt lat="42.58135" lon="2.37183">
        <ele>451</ele>
        <time>2013-07-31T11:32:23Z</time>
      </trkpt>
      <trkpt lat="42.58134" lon="2.37186">
        <ele>451</ele>
        <time>2013-07-31T11:32:25Z</time>
      </trkpt>
      <trkpt lat="42.58133" lon="2.37192">
        <ele>451</ele>
        <time>2013-07-31T11:32:29Z</time>
      </trkpt>
      <trkpt lat="42.58129" lon="2.37202">
        <ele>451</ele>
        <time>2013-07-31T11:32:34Z</time>
      </trkpt>
      <trkpt lat="42.58127" lon="2.37205">
        <ele>451</ele>
        <time>2013-07-31T11:32:36Z</time>
      </trkpt>
      <trkpt lat="42.58126" lon="2.37209">
        <ele>451</ele>
        <time>2013-07-31T11:32:39Z</time>
      </trkpt>
      <trkpt lat="42.58122" lon="2.37218">
        <ele>451</ele>
        <time>2013-07-31T11:32:44Z</time>
      </trkpt>
      <trkpt lat="42.58121" lon="2.37222">
        <ele>451</ele>
        <time>2013-07-31T11:32:46Z</time>
      </trkpt>
      <trkpt lat="42.58119" lon="2.37225">
        <ele>451</ele>
        <time>2013-07-31T11:32:49Z</time>
      </trkpt>
      <trkpt lat="42.58115" lon="2.37232">
        <ele>451</ele>
        <time>2013-07-31T11:32:54Z</time>
      </trkpt>
      <trkpt lat="42.58112" lon="2.37238">
        <ele>451</ele>
        <time>2013-07-31T11:32:57Z</time>
      </trkpt>
      <trkpt lat="42.58111" lon="2.37242">
        <ele>451</ele>
        <time>2013-07-31T11:33:00Z</time>
      </trkpt>
      <trkpt lat="42.58108" lon="2.37246">
        <ele>451</ele>
        <time>2013-07-31T11:33:04Z</time>
      </trkpt>
      <trkpt lat="42.58103" lon="2.37253">
        <ele>451</ele>
        <time>2013-07-31T11:33:09Z</time>
      </trkpt>
      <trkpt lat="42.58099" lon="2.37261">
        <ele>451</ele>
        <time>2013-07-31T11:33:14Z</time>
      </trkpt>
      <trkpt lat="42.58095" lon="2.37268">
        <ele>451</ele>
        <time>2013-07-31T11:33:18Z</time>
      </trkpt>
      <trkpt lat="42.58091" lon="2.37273">
        <ele>451</ele>
        <time>2013-07-31T11:33:23Z</time>
      </trkpt>
      <trkpt lat="42.58085" lon="2.37279">
        <ele>451</ele>
        <time>2013-07-31T11:33:28Z</time>
      </trkpt>
      <trkpt lat="42.58081" lon="2.37286">
        <ele>451</ele>
        <time>2013-07-31T11:33:32Z</time>
      </trkpt>
      <trkpt lat="42.58079" lon="2.37288">
        <ele>451</ele>
        <time>2013-07-31T11:33:35Z</time>
      </trkpt>
      <trkpt lat="42.58072" lon="2.37296">
        <ele>451</ele>
        <time>2013-07-31T11:33:40Z</time>
      </trkpt>
      <trkpt lat="42.58068" lon="2.37301">
        <ele>451</ele>
        <time>2013-07-31T11:33:45Z</time>
      </trkpt>
      <trkpt lat="42.58064" lon="2.37308">
        <ele>451</ele>
        <time>2013-07-31T11:33:50Z</time>
      </trkpt>
      <trkpt lat="42.58059" lon="2.37315">
        <ele>451</ele>
        <time>2013-07-31T11:33:55Z</time>
      </trkpt>
      <trkpt lat="42.58053" lon="2.3732">
        <ele>451</ele>
        <time>2013-07-31T11:34:00Z</time>
      </trkpt>
      <trkpt lat="42.5805" lon="2.37323">
        <ele>451</ele>
        <time>2013-07-31T11:34:02Z</time>
      </trkpt>
      <trkpt lat="42.58046" lon="2.37325">
        <ele>451</ele>
        <time>2013-07-31T11:34:06Z</time>
      </trkpt>
      <trkpt lat="42.58041" lon="2.37328">
        <ele>451</ele>
        <time>2013-07-31T11:34:12Z</time>
      </trkpt>
      <trkpt lat="42.58035" lon="2.37333">
        <ele>451</ele>
        <time>2013-07-31T11:34:15Z</time>
      </trkpt>
      <trkpt lat="42.5803" lon="2.37338">
        <ele>451</ele>
        <time>2013-07-31T11:34:19Z</time>
      </trkpt>
      <trkpt lat="42.58026" lon="2.37342">
        <ele>451</ele>
        <time>2013-07-31T11:34:23Z</time>
      </trkpt>
      <trkpt lat="42.58021" lon="2.37343">
        <ele>451</ele>
        <time>2013-07-31T11:34:26Z</time>
      </trkpt>
      <trkpt lat="42.58019" lon="2.37344">
        <ele>451</ele>
        <time>2013-07-31T11:34:28Z</time>
      </trkpt>
      <trkpt lat="42.58013" lon="2.37346">
        <ele>451</ele>
        <time>2013-07-31T11:34:32Z</time>
      </trkpt>
      <trkpt lat="42.58009" lon="2.37347">
        <ele>452</ele>
        <time>2013-07-31T11:34:36Z</time>
      </trkpt>
      <trkpt lat="42.58006" lon="2.37348">
        <ele>452</ele>
        <time>2013-07-31T11:34:39Z</time>
      </trkpt>
      <trkpt lat="42.58004" lon="2.37348">
        <ele>452</ele>
        <time>2013-07-31T11:34:41Z</time>
      </trkpt>
      <trkpt lat="42.58001" lon="2.37351">
        <ele>454</ele>
        <time>2013-07-31T11:34:44Z</time>
      </trkpt>
      <trkpt lat="42.57997" lon="2.37355">
        <ele>456</ele>
        <time>2013-07-31T11:34:47Z</time>
      </trkpt>
      <trkpt lat="42.57991" lon="2.37358">
        <ele>459</ele>
        <time>2013-07-31T11:34:51Z</time>
      </trkpt>
      <trkpt lat="42.57987" lon="2.37362">
        <ele>462</ele>
        <time>2013-07-31T11:34:55Z</time>
      </trkpt>
      <trkpt lat="42.57983" lon="2.37364">
        <ele>464</ele>
        <time>2013-07-31T11:34:59Z</time>
      </trkpt>
      <trkpt lat="42.57979" lon="2.37367">
        <ele>466</ele>
        <time>2013-07-31T11:35:03Z</time>
      </trkpt>
      <trkpt lat="42.57974" lon="2.37373">
        <ele>469</ele>
        <time>2013-07-31T11:35:08Z</time>
      </trkpt>
      <trkpt lat="42.57969" lon="2.37376">
        <ele>470</ele>
        <time>2013-07-31T11:35:12Z</time>
      </trkpt>
      <trkpt lat="42.57963" lon="2.37379">
        <ele>472</ele>
        <time>2013-07-31T11:35:16Z</time>
      </trkpt>
      <trkpt lat="42.57961" lon="2.3738">
        <ele>474</ele>
        <time>2013-07-31T11:35:18Z</time>
      </trkpt>
      <trkpt lat="42.57959" lon="2.3738">
        <ele>475</ele>
        <time>2013-07-31T11:35:21Z</time>
      </trkpt>
      <trkpt lat="42.57956" lon="2.37382">
        <ele>479</ele>
        <time>2013-07-31T11:35:25Z</time>
      </trkpt>
      <trkpt lat="42.57953" lon="2.37384">
        <ele>480</ele>
        <time>2013-07-31T11:35:27Z</time>
      </trkpt>
      <trkpt lat="42.57951" lon="2.37386">
        <ele>483</ele>
        <time>2013-07-31T11:35:31Z</time>
      </trkpt>
      <trkpt lat="42.57949" lon="2.37385">
        <ele>486</ele>
        <time>2013-07-31T11:35:34Z</time>
      </trkpt>
      <trkpt lat="42.57947" lon="2.37383">
        <ele>486</ele>
        <time>2013-07-31T11:35:38Z</time>
      </trkpt>
      <trkpt lat="42.57945" lon="2.3738">
        <ele>486</ele>
        <time>2013-07-31T11:35:40Z</time>
      </trkpt>
      <trkpt lat="42.57942" lon="2.37379">
        <ele>486</ele>
        <time>2013-07-31T11:35:44Z</time>
      </trkpt>
      <trkpt lat="42.57941" lon="2.37377">
        <ele>485</ele>
        <time>2013-07-31T11:35:46Z</time>
      </trkpt>
      <trkpt lat="42.57938" lon="2.37376">
        <ele>484</ele>
        <time>2013-07-31T11:35:51Z</time>
      </trkpt>
      <trkpt lat="42.57936" lon="2.37378">
        <ele>483</ele>
        <time>2013-07-31T11:35:54Z</time>
      </trkpt>
      <trkpt lat="42.57934" lon="2.37378">
        <ele>483</ele>
        <time>2013-07-31T11:35:57Z</time>
      </trkpt>
      <trkpt lat="42.5793" lon="2.37379">
        <ele>483</ele>
        <time>2013-07-31T11:36:01Z</time>
      </trkpt>
      <trkpt lat="42.57928" lon="2.3738">
        <ele>483</ele>
        <time>2013-07-31T11:36:03Z</time>
      </trkpt>
      <trkpt lat="42.57924" lon="2.37384">
        <ele>483</ele>
        <time>2013-07-31T11:36:09Z</time>
      </trkpt>
      <trkpt lat="42.57921" lon="2.37386">
        <ele>483</ele>
        <time>2013-07-31T11:36:13Z</time>
      </trkpt>
      <trkpt lat="42.57923" lon="2.37382">
        <ele>483</ele>
        <time>2013-07-31T11:36:16Z</time>
      </trkpt>
      <trkpt lat="42.57924" lon="2.37381">
        <ele>482</ele>
        <time>2013-07-31T11:36:20Z</time>
      </trkpt>
      <trkpt lat="42.57925" lon="2.37382">
        <ele>478</ele>
        <time>2013-07-31T11:36:27Z</time>
      </trkpt>
      <trkpt lat="42.57922" lon="2.37381">
        <ele>477</ele>
        <time>2013-07-31T11:36:33Z</time>
      </trkpt>
      <trkpt lat="42.5792" lon="2.37383">
        <ele>477</ele>
        <time>2013-07-31T11:36:39Z</time>
      </trkpt>
      <trkpt lat="42.57921" lon="2.37382">
        <ele>478</ele>
        <time>2013-07-31T11:36:45Z</time>
      </trkpt>
      <trkpt lat="42.57922" lon="2.37381">
        <ele>481</ele>
        <time>2013-07-31T11:36:51Z</time>
      </trkpt>
      <trkpt lat="42.57921" lon="2.37378">
        <ele>481</ele>
        <time>2013-07-31T11:37:00Z</time>
      </trkpt>
      <trkpt lat="42.57924" lon="2.37378">
        <ele>481</ele>
        <time>2013-07-31T11:37:03Z</time>
      </trkpt>
      <trkpt lat="42.57924" lon="2.3738">
        <ele>481</ele>
        <time>2013-07-31T11:37:07Z</time>
      </trkpt>
      <trkpt lat="42.57922" lon="2.37381">
        <ele>482</ele>
        <time>2013-07-31T11:37:09Z</time>
      </trkpt>
      <trkpt lat="42.57919" lon="2.37386">
        <ele>484</ele>
        <time>2013-07-31T11:37:14Z</time>
      </trkpt>
      <trkpt lat="42.57917" lon="2.3739">
        <ele>487</ele>
        <time>2013-07-31T11:37:19Z</time>
      </trkpt>
      <trkpt lat="42.57915" lon="2.37391">
        <ele>491</ele>
        <time>2013-07-31T11:37:22Z</time>
      </trkpt>
      <trkpt lat="42.57913" lon="2.37396">
        <ele>495</ele>
        <time>2013-07-31T11:37:27Z</time>
      </trkpt>
      <trkpt lat="42.57915" lon="2.37394">
        <ele>501</ele>
        <time>2013-07-31T11:37:33Z</time>
      </trkpt>
      <trkpt lat="42.57918" lon="2.37391">
        <ele>503</ele>
        <time>2013-07-31T11:37:37Z</time>
      </trkpt>
      <trkpt lat="42.57919" lon="2.3739">
        <ele>503</ele>
        <time>2013-07-31T11:37:40Z</time>
      </trkpt>
      <trkpt lat="42.57919" lon="2.37386">
        <ele>501</ele>
        <time>2013-07-31T11:37:45Z</time>
      </trkpt>
      <trkpt lat="42.57918" lon="2.37384">
        <ele>499</ele>
        <time>2013-07-31T11:37:47Z</time>
      </trkpt>
      <trkpt lat="42.57919" lon="2.37382">
        <ele>498</ele>
        <time>2013-07-31T11:37:50Z</time>
      </trkpt>
      <trkpt lat="42.57918" lon="2.37382">
        <ele>495</ele>
        <time>2013-07-31T11:37:54Z</time>
      </trkpt>
      <trkpt lat="42.57919" lon="2.3738">
        <ele>494</ele>
        <time>2013-07-31T11:37:58Z</time>
      </trkpt>
      <trkpt lat="42.5792" lon="2.37381">
        <ele>489</ele>
        <time>2013-07-31T11:38:05Z</time>
      </trkpt>
      <trkpt lat="42.5792" lon="2.37382">
        <ele>483</ele>
        <time>2013-07-31T11:38:19Z</time>
      </trkpt>
      <trkpt lat="42.57918" lon="2.37385">
        <ele>480</ele>
        <time>2013-07-31T11:38:40Z</time>
      </trkpt>
      <trkpt lat="42.57915" lon="2.37388">
        <ele>480</ele>
        <time>2013-07-31T11:38:44Z</time>
      </trkpt>
      <trkpt lat="42.57916" lon="2.3739">
        <ele>480</ele>
        <time>2013-07-31T11:38:49Z</time>
      </trkpt>
      <trkpt lat="42.57914" lon="2.37391">
        <ele>480</ele>
        <time>2013-07-31T11:38:51Z</time>
      </trkpt>
      <trkpt lat="42.57913" lon="2.37391">
        <ele>480</ele>
        <time>2013-07-31T11:38:53Z</time>
      </trkpt>
      <trkpt lat="42.57911" lon="2.37393">
        <ele>478</ele>
        <time>2013-07-31T11:38:57Z</time>
      </trkpt>
      <trkpt lat="42.57913" lon="2.37393">
        <ele>478</ele>
        <time>2013-07-31T11:38:59Z</time>
      </trkpt>
      <trkpt lat="42.57914" lon="2.37392">
        <ele>478</ele>
        <time>2013-07-31T11:39:01Z</time>
      </trkpt>
      <trkpt lat="42.57915" lon="2.37391">
        <ele>478</ele>
        <time>2013-07-31T11:39:03Z</time>
      </trkpt>
      <trkpt lat="42.57916" lon="2.3739">
        <ele>478</ele>
        <time>2013-07-31T11:39:06Z</time>
      </trkpt>
      <trkpt lat="42.57917" lon="2.37389">
        <ele>478</ele>
        <time>2013-07-31T11:39:11Z</time>
      </trkpt>
      <trkpt lat="42.57918" lon="2.37387">
        <ele>478</ele>
        <time>2013-07-31T11:39:16Z</time>
      </trkpt>
      <trkpt lat="42.57919" lon="2.37384">
        <ele>478</ele>
        <time>2013-07-31T11:39:20Z</time>
      </trkpt>
      <trkpt lat="42.57921" lon="2.37382">
        <ele>478</ele>
        <time>2013-07-31T11:39:23Z</time>
      </trkpt>
      <trkpt lat="42.57922" lon="2.37385">
        <ele>478</ele>
        <time>2013-07-31T11:39:28Z</time>
      </trkpt>
      <trkpt lat="42.57922" lon="2.37383">
        <ele>478</ele>
        <time>2013-07-31T11:39:33Z</time>
      </trkpt>
      <trkpt lat="42.57925" lon="2.37381">
        <ele>478</ele>
        <time>2013-07-31T11:39:36Z</time>
      </trkpt>
      <trkpt lat="42.57923" lon="2.37382">
        <ele>478</ele>
        <time>2013-07-31T11:39:41Z</time>
      </trkpt>
      <trkpt lat="42.57922" lon="2.37382">
        <ele>478</ele>
        <time>2013-07-31T11:39:46Z</time>
      </trkpt>
      <trkpt lat="42.57924" lon="2.3738">
        <ele>478</ele>
        <time>2013-07-31T11:39:48Z</time>
      </trkpt>
      <trkpt lat="42.57927" lon="2.37378">
        <ele>478</ele>
        <time>2013-07-31T11:39:51Z</time>
      </trkpt>
      <trkpt lat="42.5793" lon="2.37378">
        <ele>478</ele>
        <time>2013-07-31T11:39:53Z</time>
      </trkpt>
      <trkpt lat="42.57932" lon="2.37377">
        <ele>478</ele>
        <time>2013-07-31T11:39:55Z</time>
      </trkpt>
      <trkpt lat="42.57934" lon="2.37376">
        <ele>478</ele>
        <time>2013-07-31T11:39:57Z</time>
      </trkpt>
      <trkpt lat="42.57936" lon="2.37375">
        <ele>477</ele>
        <time>2013-07-31T11:39:59Z</time>
      </trkpt>
      <trkpt lat="42.57939" lon="2.37375">
        <ele>476</ele>
        <time>2013-07-31T11:40:01Z</time>
      </trkpt>
      <trkpt lat="42.57944" lon="2.37374">
        <ele>475</ele>
        <time>2013-07-31T11:40:03Z</time>
      </trkpt>
      <trkpt lat="42.57947" lon="2.37373">
        <ele>474</ele>
        <time>2013-07-31T11:40:05Z</time>
      </trkpt>
      <trkpt lat="42.5795" lon="2.37371">
        <ele>472</ele>
        <time>2013-07-31T11:40:08Z</time>
      </trkpt>
      <trkpt lat="42.57953" lon="2.37368">
        <ele>471</ele>
        <time>2013-07-31T11:40:11Z</time>
      </trkpt>
      <trkpt lat="42.57957" lon="2.37373">
        <ele>471</ele>
        <time>2013-07-31T11:40:13Z</time>
      </trkpt>
      <trkpt lat="42.5796" lon="2.37374">
        <ele>471</ele>
        <time>2013-07-31T11:40:15Z</time>
      </trkpt>
      <trkpt lat="42.57963" lon="2.37373">
        <ele>471</ele>
        <time>2013-07-31T11:40:17Z</time>
      </trkpt>
      <trkpt lat="42.57967" lon="2.37372">
        <ele>471</ele>
        <time>2013-07-31T11:40:20Z</time>
      </trkpt>
      <trkpt lat="42.57971" lon="2.37369">
        <ele>468</ele>
        <time>2013-07-31T11:40:23Z</time>
      </trkpt>
      <trkpt lat="42.57976" lon="2.37365">
        <ele>465</ele>
        <time>2013-07-31T11:40:25Z</time>
      </trkpt>
      <trkpt lat="42.57979" lon="2.37363">
        <ele>463</ele>
        <time>2013-07-31T11:40:27Z</time>
      </trkpt>
      <trkpt lat="42.57983" lon="2.37362">
        <ele>461</ele>
        <time>2013-07-31T11:40:29Z</time>
      </trkpt>
      <trkpt lat="42.57986" lon="2.37359">
        <ele>459</ele>
        <time>2013-07-31T11:40:31Z</time>
      </trkpt>
      <trkpt lat="42.57988" lon="2.37356">
        <ele>458</ele>
        <time>2013-07-31T11:40:33Z</time>
      </trkpt>
      <trkpt lat="42.57991" lon="2.37353">
        <ele>458</ele>
        <time>2013-07-31T11:40:36Z</time>
      </trkpt>
      <trkpt lat="42.57996" lon="2.3735">
        <ele>458</ele>
        <time>2013-07-31T11:40:38Z</time>
      </trkpt>
      <trkpt lat="42.57999" lon="2.37348">
        <ele>458</ele>
        <time>2013-07-31T11:40:40Z</time>
      </trkpt>
      <trkpt lat="42.58002" lon="2.37346">
        <ele>457</ele>
        <time>2013-07-31T11:40:42Z</time>
      </trkpt>
      <trkpt lat="42.58006" lon="2.37346">
        <ele>457</ele>
        <time>2013-07-31T11:40:44Z</time>
      </trkpt>
      <trkpt lat="42.58008" lon="2.37344">
        <ele>457</ele>
        <time>2013-07-31T11:40:46Z</time>
      </trkpt>
      <trkpt lat="42.58012" lon="2.37343">
        <ele>457</ele>
        <time>2013-07-31T11:40:48Z</time>
      </trkpt>
      <trkpt lat="42.58014" lon="2.37341">
        <ele>457</ele>
        <time>2013-07-31T11:40:50Z</time>
      </trkpt>
      <trkpt lat="42.58018" lon="2.3734">
        <ele>457</ele>
        <time>2013-07-31T11:40:52Z</time>
      </trkpt>
      <trkpt lat="42.58022" lon="2.3734">
        <ele>457</ele>
        <time>2013-07-31T11:40:54Z</time>
      </trkpt>
      <trkpt lat="42.58025" lon="2.37338">
        <ele>457</ele>
        <time>2013-07-31T11:40:57Z</time>
      </trkpt>
      <trkpt lat="42.58027" lon="2.37335">
        <ele>457</ele>
        <time>2013-07-31T11:40:59Z</time>
      </trkpt>
      <trkpt lat="42.58029" lon="2.3733">
        <ele>456</ele>
        <time>2013-07-31T11:41:01Z</time>
      </trkpt>
      <trkpt lat="42.58033" lon="2.37326">
        <ele>454</ele>
        <time>2013-07-31T11:41:04Z</time>
      </trkpt>
      <trkpt lat="42.58035" lon="2.37324">
        <ele>453</ele>
        <time>2013-07-31T11:41:06Z</time>
      </trkpt>
      <trkpt lat="42.58037" lon="2.37321">
        <ele>452</ele>
        <time>2013-07-31T11:41:08Z</time>
      </trkpt>
      <trkpt lat="42.58041" lon="2.3732">
        <ele>452</ele>
        <time>2013-07-31T11:41:10Z</time>
      </trkpt>
      <trkpt lat="42.58043" lon="2.37319">
        <ele>452</ele>
        <time>2013-07-31T11:41:12Z</time>
      </trkpt>
      <trkpt lat="42.58047" lon="2.37318">
        <ele>452</ele>
        <time>2013-07-31T11:41:14Z</time>
      </trkpt>
      <trkpt lat="42.58051" lon="2.37317">
        <ele>451</ele>
        <time>2013-07-31T11:41:16Z</time>
      </trkpt>
      <trkpt lat="42.58054" lon="2.37314">
        <ele>451</ele>
        <time>2013-07-31T11:41:18Z</time>
      </trkpt>
      <trkpt lat="42.58057" lon="2.37311">
        <ele>451</ele>
        <time>2013-07-31T11:41:20Z</time>
      </trkpt>
      <trkpt lat="42.58059" lon="2.37308">
        <ele>451</ele>
        <time>2013-07-31T11:41:22Z</time>
      </trkpt>
      <trkpt lat="42.58062" lon="2.37305">
        <ele>451</ele>
        <time>2013-07-31T11:41:24Z</time>
      </trkpt>
      <trkpt lat="42.58064" lon="2.37301">
        <ele>451</ele>
        <time>2013-07-31T11:41:26Z</time>
      </trkpt>
      <trkpt lat="42.58066" lon="2.37298">
        <ele>451</ele>
        <time>2013-07-31T11:41:28Z</time>
      </trkpt>
      <trkpt lat="42.58068" lon="2.37294">
        <ele>451</ele>
        <time>2013-07-31T11:41:30Z</time>
      </trkpt>
      <trkpt lat="42.58071" lon="2.37292">
        <ele>451</ele>
        <time>2013-07-31T11:41:33Z</time>
      </trkpt>
      <trkpt lat="42.58074" lon="2.37287">
        <ele>451</ele>
        <time>2013-07-31T11:41:35Z</time>
      </trkpt>
      <trkpt lat="42.58077" lon="2.37284">
        <ele>451</ele>
        <time>2013-07-31T11:41:37Z</time>
      </trkpt>
      <trkpt lat="42.58079" lon="2.37281">
        <ele>451</ele>
        <time>2013-07-31T11:41:39Z</time>
      </trkpt>
      <trkpt lat="42.58082" lon="2.37279">
        <ele>451</ele>
        <time>2013-07-31T11:41:41Z</time>
      </trkpt>
      <trkpt lat="42.58084" lon="2.37276">
        <ele>451</ele>
        <time>2013-07-31T11:41:43Z</time>
      </trkpt>
      <trkpt lat="42.58086" lon="2.37273">
        <ele>451</ele>
        <time>2013-07-31T11:41:45Z</time>
      </trkpt>
      <trkpt lat="42.58089" lon="2.37271">
        <ele>451</ele>
        <time>2013-07-31T11:41:47Z</time>
      </trkpt>
      <trkpt lat="42.58091" lon="2.37268">
        <ele>451</ele>
        <time>2013-07-31T11:41:49Z</time>
      </trkpt>
      <trkpt lat="42.58094" lon="2.37264">
        <ele>451</ele>
        <time>2013-07-31T11:41:53Z</time>
      </trkpt>
      <trkpt lat="42.58096" lon="2.3726">
        <ele>451</ele>
        <time>2013-07-31T11:41:55Z</time>
      </trkpt>
      <trkpt lat="42.58098" lon="2.37256">
        <ele>451</ele>
        <time>2013-07-31T11:41:57Z</time>
      </trkpt>
      <trkpt lat="42.58099" lon="2.37253">
        <ele>451</ele>
        <time>2013-07-31T11:41:59Z</time>
      </trkpt>
      <trkpt lat="42.58102" lon="2.37249">
        <ele>451</ele>
        <time>2013-07-31T11:42:02Z</time>
      </trkpt>
      <trkpt lat="42.58104" lon="2.37246">
        <ele>451</ele>
        <time>2013-07-31T11:42:04Z</time>
      </trkpt>
      <trkpt lat="42.58105" lon="2.37242">
        <ele>451</ele>
        <time>2013-07-31T11:42:06Z</time>
      </trkpt>
      <trkpt lat="42.58108" lon="2.37237">
        <ele>451</ele>
        <time>2013-07-31T11:42:09Z</time>
      </trkpt>
      <trkpt lat="42.5811" lon="2.37234">
        <ele>451</ele>
        <time>2013-07-31T11:42:11Z</time>
      </trkpt>
      <trkpt lat="42.58112" lon="2.3723">
        <ele>451</ele>
        <time>2013-07-31T11:42:13Z</time>
      </trkpt>
      <trkpt lat="42.58113" lon="2.37227">
        <ele>451</ele>
        <time>2013-07-31T11:42:15Z</time>
      </trkpt>
      <trkpt lat="42.58115" lon="2.37224">
        <ele>451</ele>
        <time>2013-07-31T11:42:17Z</time>
      </trkpt>
      <trkpt lat="42.58116" lon="2.37221">
        <ele>451</ele>
        <time>2013-07-31T11:42:19Z</time>
      </trkpt>
      <trkpt lat="42.58118" lon="2.37218">
        <ele>451</ele>
        <time>2013-07-31T11:42:22Z</time>
      </trkpt>
      <trkpt lat="42.5812" lon="2.37213">
        <ele>451</ele>
        <time>2013-07-31T11:42:25Z</time>
      </trkpt>
      <trkpt lat="42.58123" lon="2.37208">
        <ele>451</ele>
        <time>2013-07-31T11:42:27Z</time>
      </trkpt>
      <trkpt lat="42.58126" lon="2.37203">
        <ele>451</ele>
        <time>2013-07-31T11:42:30Z</time>
      </trkpt>
      <trkpt lat="42.58127" lon="2.37199">
        <ele>451</ele>
        <time>2013-07-31T11:42:32Z</time>
      </trkpt>
      <trkpt lat="42.58129" lon="2.37195">
        <ele>451</ele>
        <time>2013-07-31T11:42:34Z</time>
      </trkpt>
      <trkpt lat="42.58131" lon="2.37191">
        <ele>451</ele>
        <time>2013-07-31T11:42:36Z</time>
      </trkpt>
      <trkpt lat="42.58133" lon="2.37186">
        <ele>452</ele>
        <time>2013-07-31T11:42:39Z</time>
      </trkpt>
      <trkpt lat="42.58134" lon="2.37182">
        <ele>452</ele>
        <time>2013-07-31T11:42:41Z</time>
      </trkpt>
      <trkpt lat="42.58135" lon="2.37177">
        <ele>453</ele>
        <time>2013-07-31T11:42:43Z</time>
      </trkpt>
      <trkpt lat="42.58136" lon="2.37173">
        <ele>454</ele>
        <time>2013-07-31T11:42:45Z</time>
      </trkpt>
      <trkpt lat="42.58139" lon="2.37168">
        <ele>455</ele>
        <time>2013-07-31T11:42:47Z</time>
      </trkpt>
      <trkpt lat="42.5814" lon="2.37165">
        <ele>455</ele>
        <time>2013-07-31T11:42:50Z</time>
      </trkpt>
      <trkpt lat="42.58143" lon="2.3716">
        <ele>455</ele>
        <time>2013-07-31T11:42:53Z</time>
      </trkpt>
      <trkpt lat="42.58146" lon="2.37153">
        <ele>455</ele>
        <time>2013-07-31T11:42:56Z</time>
      </trkpt>
      <trkpt lat="42.58147" lon="2.37151">
        <ele>456</ele>
        <time>2013-07-31T11:42:58Z</time>
      </trkpt>
      <trkpt lat="42.58149" lon="2.37147">
        <ele>456</ele>
        <time>2013-07-31T11:43:02Z</time>
      </trkpt>
      <trkpt lat="42.58151" lon="2.37145">
        <ele>456</ele>
        <time>2013-07-31T11:43:04Z</time>
      </trkpt>
      <trkpt lat="42.58153" lon="2.37142">
        <ele>456</ele>
        <time>2013-07-31T11:43:06Z</time>
      </trkpt>
      <trkpt lat="42.58156" lon="2.37137">
        <ele>456</ele>
        <time>2013-07-31T11:43:08Z</time>
      </trkpt>
      <trkpt lat="42.58158" lon="2.37134">
        <ele>456</ele>
        <time>2013-07-31T11:43:11Z</time>
      </trkpt>
      <trkpt lat="42.58161" lon="2.37131">
        <ele>456</ele>
        <time>2013-07-31T11:43:14Z</time>
      </trkpt>
      <trkpt lat="42.58164" lon="2.37127">
        <ele>456</ele>
        <time>2013-07-31T11:43:16Z</time>
      </trkpt>
      <trkpt lat="42.58166" lon="2.37125">
        <ele>456</ele>
        <time>2013-07-31T11:43:19Z</time>
      </trkpt>
      <trkpt lat="42.58169" lon="2.37121">
        <ele>456</ele>
        <time>2013-07-31T11:43:21Z</time>
      </trkpt>
      <trkpt lat="42.58171" lon="2.37118">
        <ele>456</ele>
        <time>2013-07-31T11:43:23Z</time>
      </trkpt>
      <trkpt lat="42.58172" lon="2.37115">
        <ele>455</ele>
        <time>2013-07-31T11:43:25Z</time>
      </trkpt>
      <trkpt lat="42.58174" lon="2.37113">
        <ele>455</ele>
        <time>2013-07-31T11:43:28Z</time>
      </trkpt>
      <trkpt lat="42.58176" lon="2.37109">
        <ele>455</ele>
        <time>2013-07-31T11:43:30Z</time>
      </trkpt>
      <trkpt lat="42.58178" lon="2.37107">
        <ele>455</ele>
        <time>2013-07-31T11:43:33Z</time>
      </trkpt>
      <trkpt lat="42.5818" lon="2.37104">
        <ele>455</ele>
        <time>2013-07-31T11:43:35Z</time>
      </trkpt>
      <trkpt lat="42.58182" lon="2.37102">
        <ele>455</ele>
        <time>2013-07-31T11:43:37Z</time>
      </trkpt>
      <trkpt lat="42.58185" lon="2.37097">
        <ele>455</ele>
        <time>2013-07-31T11:43:39Z</time>
      </trkpt>
      <trkpt lat="42.58187" lon="2.37094">
        <ele>455</ele>
        <time>2013-07-31T11:43:42Z</time>
      </trkpt>
      <trkpt lat="42.58189" lon="2.3709">
        <ele>455</ele>
        <time>2013-07-31T11:43:45Z</time>
      </trkpt>
      <trkpt lat="42.58191" lon="2.37087">
        <ele>455</ele>
        <time>2013-07-31T11:43:47Z</time>
      </trkpt>
      <trkpt lat="42.58193" lon="2.3708">
        <ele>455</ele>
        <time>2013-07-31T11:43:50Z</time>
      </trkpt>
      <trkpt lat="42.58194" lon="2.37078">
        <ele>455</ele>
        <time>2013-07-31T11:43:52Z</time>
      </trkpt>
      <trkpt lat="42.58198" lon="2.37079">
        <ele>455</ele>
        <time>2013-07-31T11:43:55Z</time>
      </trkpt>
      <trkpt lat="42.58201" lon="2.37079">
        <ele>455</ele>
        <time>2013-07-31T11:43:57Z</time>
      </trkpt>
      <trkpt lat="42.58204" lon="2.37078">
        <ele>455</ele>
        <time>2013-07-31T11:44:00Z</time>
      </trkpt>
      <trkpt lat="42.58208" lon="2.37075">
        <ele>455</ele>
        <time>2013-07-31T11:44:02Z</time>
      </trkpt>
      <trkpt lat="42.58211" lon="2.37072">
        <ele>455</ele>
        <time>2013-07-31T11:44:05Z</time>
      </trkpt>
      <trkpt lat="42.58214" lon="2.37068">
        <ele>455</ele>
        <time>2013-07-31T11:44:08Z</time>
      </trkpt>
      <trkpt lat="42.58218" lon="2.37065">
        <ele>454</ele>
        <time>2013-07-31T11:44:10Z</time>
      </trkpt>
      <trkpt lat="42.58221" lon="2.37061">
        <ele>453</ele>
        <time>2013-07-31T11:44:12Z</time>
      </trkpt>
      <trkpt lat="42.58223" lon="2.37059">
        <ele>453</ele>
        <time>2013-07-31T11:44:14Z</time>
      </trkpt>
      <trkpt lat="42.58226" lon="2.37057">
        <ele>453</ele>
        <time>2013-07-31T11:44:16Z</time>
      </trkpt>
      <trkpt lat="42.58228" lon="2.37053">
        <ele>453</ele>
        <time>2013-07-31T11:44:18Z</time>
      </trkpt>
      <trkpt lat="42.58231" lon="2.37051">
        <ele>453</ele>
        <time>2013-07-31T11:44:20Z</time>
      </trkpt>
      <trkpt lat="42.58234" lon="2.37049">
        <ele>453</ele>
        <time>2013-07-31T11:44:22Z</time>
      </trkpt>
      <trkpt lat="42.58236" lon="2.37048">
        <ele>453</ele>
        <time>2013-07-31T11:44:24Z</time>
      </trkpt>
      <trkpt lat="42.5824" lon="2.37045">
        <ele>453</ele>
        <time>2013-07-31T11:44:27Z</time>
      </trkpt>
      <trkpt lat="42.58242" lon="2.37044">
        <ele>452</ele>
        <time>2013-07-31T11:44:29Z</time>
      </trkpt>
      <trkpt lat="42.58245" lon="2.37042">
        <ele>452</ele>
        <time>2013-07-31T11:44:32Z</time>
      </trkpt>
      <trkpt lat="42.58249" lon="2.37039">
        <ele>452</ele>
        <time>2013-07-31T11:44:34Z</time>
      </trkpt>
      <trkpt lat="42.58252" lon="2.37037">
        <ele>452</ele>
        <time>2013-07-31T11:44:36Z</time>
      </trkpt>
      <trkpt lat="42.58254" lon="2.37036">
        <ele>452</ele>
        <time>2013-07-31T11:44:38Z</time>
      </trkpt>
      <trkpt lat="42.58257" lon="2.37034">
        <ele>452</ele>
        <time>2013-07-31T11:44:40Z</time>
      </trkpt>
      <trkpt lat="42.5826" lon="2.37033">
        <ele>451</ele>
        <time>2013-07-31T11:44:42Z</time>
      </trkpt>
      <trkpt lat="42.58263" lon="2.37031">
        <ele>451</ele>
        <time>2013-07-31T11:44:45Z</time>
      </trkpt>
      <trkpt lat="42.58265" lon="2.3703">
        <ele>451</ele>
        <time>2013-07-31T11:44:47Z</time>
      </trkpt>
      <trkpt lat="42.58268" lon="2.37028">
        <ele>451</ele>
        <time>2013-07-31T11:44:49Z</time>
      </trkpt>
      <trkpt lat="42.5827" lon="2.37027">
        <ele>451</ele>
        <time>2013-07-31T11:44:51Z</time>
      </trkpt>
      <trkpt lat="42.58272" lon="2.37026">
        <ele>451</ele>
        <time>2013-07-31T11:44:53Z</time>
      </trkpt>
      <trkpt lat="42.58276" lon="2.37026">
        <ele>451</ele>
        <time>2013-07-31T11:44:56Z</time>
      </trkpt>
      <trkpt lat="42.58279" lon="2.37026">
        <ele>451</ele>
        <time>2013-07-31T11:44:58Z</time>
      </trkpt>
      <trkpt lat="42.58282" lon="2.37026">
        <ele>451</ele>
        <time>2013-07-31T11:45:00Z</time>
      </trkpt>
      <trkpt lat="42.58286" lon="2.37025">
        <ele>451</ele>
        <time>2013-07-31T11:45:02Z</time>
      </trkpt>
      <trkpt lat="42.58289" lon="2.37026">
        <ele>451</ele>
        <time>2013-07-31T11:45:04Z</time>
      </trkpt>
      <trkpt lat="42.58292" lon="2.37026">
        <ele>451</ele>
        <time>2013-07-31T11:45:06Z</time>
      </trkpt>
      <trkpt lat="42.58295" lon="2.37025">
        <ele>451</ele>
        <time>2013-07-31T11:45:09Z</time>
      </trkpt>
      <trkpt lat="42.58297" lon="2.37026">
        <ele>451</ele>
        <time>2013-07-31T11:45:12Z</time>
      </trkpt>
      <trkpt lat="42.58296" lon="2.37035">
        <ele>451</ele>
        <time>2013-07-31T11:45:15Z</time>
      </trkpt>
      <trkpt lat="42.58298" lon="2.37038">
        <ele>454</ele>
        <time>2013-07-31T11:45:17Z</time>
      </trkpt>
      <trkpt lat="42.58302" lon="2.37035">
        <ele>456</ele>
        <time>2013-07-31T11:45:19Z</time>
      </trkpt>
      <trkpt lat="42.58305" lon="2.37035">
        <ele>458</ele>
        <time>2013-07-31T11:45:22Z</time>
      </trkpt>
      <trkpt lat="42.58311" lon="2.37031">
        <ele>458</ele>
        <time>2013-07-31T11:45:24Z</time>
      </trkpt>
      <trkpt lat="42.58314" lon="2.37029">
        <ele>458</ele>
        <time>2013-07-31T11:45:26Z</time>
      </trkpt>
      <trkpt lat="42.58318" lon="2.37025">
        <ele>457</ele>
        <time>2013-07-31T11:45:29Z</time>
      </trkpt>
      <trkpt lat="42.58323" lon="2.37022">
        <ele>454</ele>
        <time>2013-07-31T11:45:31Z</time>
      </trkpt>
      <trkpt lat="42.58325" lon="2.37024">
        <ele>452</ele>
        <time>2013-07-31T11:45:33Z</time>
      </trkpt>
      <trkpt lat="42.58326" lon="2.37029">
        <ele>449</ele>
        <time>2013-07-31T11:45:36Z</time>
      </trkpt>
      <trkpt lat="42.58328" lon="2.37033">
        <ele>447</ele>
        <time>2013-07-31T11:45:39Z</time>
      </trkpt>
      <trkpt lat="42.58331" lon="2.37038">
        <ele>446</ele>
        <time>2013-07-31T11:45:41Z</time>
      </trkpt>
      <trkpt lat="42.58331" lon="2.37041">
        <ele>445</ele>
        <time>2013-07-31T11:45:43Z</time>
      </trkpt>
      <trkpt lat="42.58332" lon="2.37044">
        <ele>445</ele>
        <time>2013-07-31T11:45:45Z</time>
      </trkpt>
      <trkpt lat="42.58333" lon="2.37048">
        <ele>444</ele>
        <time>2013-07-31T11:45:47Z</time>
      </trkpt>
      <trkpt lat="42.58334" lon="2.37052">
        <ele>444</ele>
        <time>2013-07-31T11:45:49Z</time>
      </trkpt>
      <trkpt lat="42.58335" lon="2.37056">
        <ele>444</ele>
        <time>2013-07-31T11:45:51Z</time>
      </trkpt>
      <trkpt lat="42.58335" lon="2.3706">
        <ele>443</ele>
        <time>2013-07-31T11:45:53Z</time>
      </trkpt>
      <trkpt lat="42.58334" lon="2.37064">
        <ele>443</ele>
        <time>2013-07-31T11:45:55Z</time>
      </trkpt>
      <trkpt lat="42.58332" lon="2.37066">
        <ele>443</ele>
        <time>2013-07-31T11:45:57Z</time>
      </trkpt>
      <trkpt lat="42.58329" lon="2.37069">
        <ele>443</ele>
        <time>2013-07-31T11:45:59Z</time>
      </trkpt>
      <trkpt lat="42.58326" lon="2.37072">
        <ele>443</ele>
        <time>2013-07-31T11:46:01Z</time>
      </trkpt>
      <trkpt lat="42.58323" lon="2.37075">
        <ele>443</ele>
        <time>2013-07-31T11:46:03Z</time>
      </trkpt>
      <trkpt lat="42.58321" lon="2.37077">
        <ele>443</ele>
        <time>2013-07-31T11:46:05Z</time>
      </trkpt>
      <trkpt lat="42.5832" lon="2.37079">
        <ele>443</ele>
        <time>2013-07-31T11:46:07Z</time>
      </trkpt>
      <trkpt lat="42.58318" lon="2.37082">
        <ele>443</ele>
        <time>2013-07-31T11:46:09Z</time>
      </trkpt>
      <trkpt lat="42.58316" lon="2.37085">
        <ele>443</ele>
        <time>2013-07-31T11:46:11Z</time>
      </trkpt>
      <trkpt lat="42.58314" lon="2.37088">
        <ele>443</ele>
        <time>2013-07-31T11:46:13Z</time>
      </trkpt>
      <trkpt lat="42.58312" lon="2.3709">
        <ele>443</ele>
        <time>2013-07-31T11:46:15Z</time>
      </trkpt>
      <trkpt lat="42.58308" lon="2.37094">
        <ele>443</ele>
        <time>2013-07-31T11:46:18Z</time>
      </trkpt>
      <trkpt lat="42.58306" lon="2.37096">
        <ele>443</ele>
        <time>2013-07-31T11:46:20Z</time>
      </trkpt>
      <trkpt lat="42.58303" lon="2.37098">
        <ele>443</ele>
        <time>2013-07-31T11:46:22Z</time>
      </trkpt>
      <trkpt lat="42.58301" lon="2.371">
        <ele>443</ele>
        <time>2013-07-31T11:46:25Z</time>
      </trkpt>
      <trkpt lat="42.58297" lon="2.37102">
        <ele>443</ele>
        <time>2013-07-31T11:46:27Z</time>
      </trkpt>
      <trkpt lat="42.58295" lon="2.37104">
        <ele>443</ele>
        <time>2013-07-31T11:46:29Z</time>
      </trkpt>
      <trkpt lat="42.58292" lon="2.37106">
        <ele>443</ele>
        <time>2013-07-31T11:46:31Z</time>
      </trkpt>
      <trkpt lat="42.58289" lon="2.37107">
        <ele>443</ele>
        <time>2013-07-31T11:46:33Z</time>
      </trkpt>
      <trkpt lat="42.58287" lon="2.37107">
        <ele>443</ele>
        <time>2013-07-31T11:46:36Z</time>
      </trkpt>
      <trkpt lat="42.58284" lon="2.37109">
        <ele>443</ele>
        <time>2013-07-31T11:46:38Z</time>
      </trkpt>
      <trkpt lat="42.5828" lon="2.37111">
        <ele>443</ele>
        <time>2013-07-31T11:46:40Z</time>
      </trkpt>
      <trkpt lat="42.58277" lon="2.37112">
        <ele>443</ele>
        <time>2013-07-31T11:46:43Z</time>
      </trkpt>
      <trkpt lat="42.58274" lon="2.37112">
        <ele>443</ele>
        <time>2013-07-31T11:46:45Z</time>
      </trkpt>
      <trkpt lat="42.58271" lon="2.37113">
        <ele>443</ele>
        <time>2013-07-31T11:46:47Z</time>
      </trkpt>
      <trkpt lat="42.58268" lon="2.37114">
        <ele>442</ele>
        <time>2013-07-31T11:46:49Z</time>
      </trkpt>
      <trkpt lat="42.58265" lon="2.37115">
        <ele>442</ele>
        <time>2013-07-31T11:46:52Z</time>
      </trkpt>
      <trkpt lat="42.58261" lon="2.37117">
        <ele>442</ele>
        <time>2013-07-31T11:46:54Z</time>
      </trkpt>
      <trkpt lat="42.58258" lon="2.37119">
        <ele>442</ele>
        <time>2013-07-31T11:46:57Z</time>
      </trkpt>
      <trkpt lat="42.58255" lon="2.3712">
        <ele>442</ele>
        <time>2013-07-31T11:46:59Z</time>
      </trkpt>
      <trkpt lat="42.58253" lon="2.37122">
        <ele>442</ele>
        <time>2013-07-31T11:47:01Z</time>
      </trkpt>
      <trkpt lat="42.58249" lon="2.37124">
        <ele>442</ele>
        <time>2013-07-31T11:47:03Z</time>
      </trkpt>
      <trkpt lat="42.58246" lon="2.37125">
        <ele>442</ele>
        <time>2013-07-31T11:47:06Z</time>
      </trkpt>
      <trkpt lat="42.58245" lon="2.37126">
        <ele>442</ele>
        <time>2013-07-31T11:47:08Z</time>
      </trkpt>
      <trkpt lat="42.58244" lon="2.37127">
        <ele>442</ele>
        <time>2013-07-31T11:47:09Z</time>
      </trkpt>
    </trkseg>
  </trk>
</gpx>